Time;durP1;ratioP1;P1;durP2;ratioP2;P2;SDS_P1;SDS_P2;PMS_P1;PMS_P2;Temp;Humidity;BMP_temperature;BMP_pressure;BME280_temperature;BME280_humidity;BME280_pressure;Samples;Min_cycle;Max_cycle;Signal;HPM_P1;HPM_P2
2022/07/27 00:08:53;;;;;;;0.68;0.20;;;14.00;99.90;;;;;;20619518;28;20049;-38
2022/07/27 00:18:54;;;;;;;0.43;0.20;;;13.90;99.90;;;;;;20624321;28;20181;-37
2022/07/27 00:28:55;;;;;;;0.98;0.20;;;13.80;99.90;;;;;;20620369;28;20128;-38
2022/07/27 00:38:56;;;;;;;0.80;0.20;;;13.70;99.90;;;;;;20637872;28;20069;-37
2022/07/27 00:48:57;;;;;;;1.60;0.43;;;13.60;99.90;;;;;;20637324;28;20096;-37
2022/07/27 00:58:58;;;;;;;1.60;0.20;;;13.60;99.90;;;;;;20631627;28;20125;-38
2022/07/27 01:19:19;;;;;;;0.85;0.28;;;13.60;99.90;;;;;;20644472;28;20062;-37
2022/07/27 01:29:20;;;;;;;0.57;0.32;;;13.70;99.90;;;;;;20634167;28;20030;-37
2022/07/27 01:39:21;;;;;;;0.70;0.20;;;13.80;99.90;;;;;;20628778;28;21747;-38
2022/07/27 01:49:22;;;;;;;1.20;0.30;;;13.90;99.90;;;;;;20625167;28;20893;-38
2022/07/27 01:59:24;;;;;;;0.63;0.15;;;13.90;99.90;;;;;;20626193;28;20128;-38
2022/07/27 02:09:25;;;;;;;0.85;0.32;;;13.90;99.90;;;;;;20624934;28;20125;-38
2022/07/27 02:19:27;;;;;;;1.50;0.30;;;13.80;99.90;;;;;;20629163;28;20038;-38
2022/07/27 02:29:28;;;;;;;1.40;0.30;;;13.70;99.90;;;;;;20618733;28;20546;-37
2022/07/27 02:39:30;;;;;;;0.70;0.10;;;13.70;99.90;;;;;;20616344;28;20163;-38
2022/07/27 02:49:31;;;;;;;1.55;0.30;;;13.80;99.90;;;;;;20619245;28;20166;-38
2022/07/27 02:59:32;;;;;;;0.73;0.30;;;13.80;99.90;;;;;;20619852;28;20073;-38
2022/07/27 03:09:33;;;;;;;0.88;0.30;;;13.90;99.90;;;;;;20618330;28;20038;-38
2022/07/27 03:19:34;;;;;;;0.90;0.20;;;14.00;99.90;;;;;;20620201;28;20156;-38
2022/07/27 03:29:36;;;;;;;0.90;0.30;;;14.00;99.90;;;;;;20619536;28;20659;-38
2022/07/27 03:39:37;;;;;;;1.88;0.50;;;14.20;99.90;;;;;;20628609;28;20090;-38
2022/07/27 03:49:38;;;;;;;0.52;0.30;;;14.20;99.90;;;;;;20639224;28;20041;-38
2022/07/27 03:59:39;;;;;;;1.15;0.20;;;14.30;99.90;;;;;;20650037;28;20053;-39
2022/07/27 04:09:40;;;;;;;0.55;0.20;;;14.40;99.90;;;;;;20679480;28;20378;-39
2022/07/27 04:19:41;;;;;;;1.20;0.25;;;14.40;99.90;;;;;;20683197;28;20052;-38
2022/07/27 04:29:42;;;;;;;0.60;0.28;;;14.40;99.90;;;;;;20674053;28;20556;-38
2022/07/27 04:39:43;;;;;;;0.57;0.20;;;14.50;99.90;;;;;;20682765;28;20049;-38
2022/07/27 04:49:44;;;;;;;0.73;0.20;;;14.60;99.90;;;;;;20682959;28;20386;-38
2022/07/27 04:59:46;;;;;;;0.93;0.25;;;14.60;99.90;;;;;;20680807;28;20034;-39
2022/07/27 05:09:47;;;;;;;1.15;0.20;;;14.60;99.90;;;;;;20680241;28;20038;-38
2022/07/27 05:19:48;;;;;;;1.23;0.40;;;14.80;99.90;;;;;;20661944;28;20045;-39
2022/07/27 05:29:50;;;;;;;1.45;0.28;;;15.00;99.90;;;;;;20662433;28;20050;-39
2022/07/27 05:39:51;;;;;;;0.98;0.20;;;15.40;99.90;;;;;;20659844;28;20355;-39
2022/07/27 05:49:52;;;;;;;0.25;0.10;;;15.50;99.90;;;;;;20653177;28;20086;-45
2022/07/27 05:59:53;;;;;;;1.08;0.20;;;15.60;99.90;;;;;;20654375;28;20038;-38
2022/07/27 06:09:54;;;;;;;0.50;0.10;;;16.10;99.90;;;;;;20632021;28;20073;-39
2022/07/27 06:19:55;;;;;;;0.75;0.20;;;16.40;99.90;;;;;;20660992;28;20050;-39
2022/07/27 06:29:56;;;;;;;1.25;0.45;;;16.90;99.90;;;;;;20653881;28;20074;-40
2022/07/27 06:39:59;;;;;;;1.05;0.40;;;17.20;99.90;;;;;;20649060;28;20053;-39
2022/07/27 06:50:01;;;;;;;0.88;0.17;;;17.40;99.90;;;;;;20669181;28;20069;-39
2022/07/27 07:00:03;;;;;;;0.57;0.10;;;17.40;99.90;;;;;;20651241;28;21247;-39
2022/07/27 07:10:04;;;;;;;0.93;0.20;;;17.30;99.90;;;;;;20674290;28;20031;-39
2022/07/27 07:20:07;;;;;;;0.40;0.10;;;17.40;99.90;;;;;;20656367;28;20037;-39
2022/07/27 07:30:08;;;;;;;0.85;0.20;;;17.40;99.90;;;;;;20653087;28;20049;-39
2022/07/27 07:40:09;;;;;;;0.98;0.70;;;17.40;99.90;;;;;;20654359;28;20109;-38
2022/07/27 07:50:10;;;;;;;0.70;0.20;;;17.40;99.90;;;;;;20655296;28;20097;-39
2022/07/27 08:00:12;;;;;;;0.20;0.00;;;17.50;99.90;;;;;;20663209;28;20045;-39
2022/07/27 08:10:14;;;;;;;0.98;0.70;;;17.60;99.90;;;;;;20659198;28;20437;-39
2022/07/27 08:20:16;;;;;;;0.50;0.40;;;17.80;99.90;;;;;;20697190;28;20074;-39
2022/07/27 08:30:18;;;;;;;0.25;0.10;;;17.90;99.90;;;;;;20699850;28;20593;-40
2022/07/27 08:40:19;;;;;;;1.27;0.30;;;18.20;99.90;;;;;;20715403;28;20200;-39
2022/07/27 08:50:22;;;;;;;0.80;0.30;;;18.70;99.90;;;;;;20716478;28;20053;-39
2022/07/27 09:00:23;;;;;;;0.95;0.15;;;18.90;99.90;;;;;;20726033;28;20694;-40
2022/07/27 09:10:30;;;;;;;1.23;0.30;;;19.10;99.90;;;;;;20712276;28;20141;-39
2022/07/27 09:20:31;;;;;;;0.60;0.32;;;19.40;99.90;;;;;;20725265;28;20092;-39
2022/07/27 09:30:39;;;;;;;0.40;0.10;;;19.60;99.90;;;;;;20711184;28;20105;-40
2022/07/27 09:40:40;;;;;;;0.55;0.10;;;19.80;99.90;;;;;;20678772;28;20101;-39
2022/07/27 09:50:59;;;;;;;0.22;0.10;;;20.40;99.90;;;;;;20668223;28;20513;-39
2022/07/27 10:01:00;;;;;;;0.60;0.20;;;20.70;99.90;;;;;;20647124;28;20558;-41
2022/07/27 10:11:01;;;;;;;1.17;0.28;;;21.20;99.90;;;;;;20667814;28;20371;-39
2022/07/27 10:21:08;;;;;;;0.55;0.10;;;21.70;98.30;;;;;;20666861;28;20097;-40
2022/07/27 10:31:45;;;;;;;0.52;0.10;;;21.10;98.70;;;;;;20663707;28;20273;-40
2022/07/27 10:41:47;;;;;;;0.97;0.10;;;21.30;99.50;;;;;;20615760;28;20947;-40
2022/07/27 10:51:49;;;;;;;0.80;0.20;;;21.80;97.70;;;;;;20660415;28;20037;-40
2022/07/27 11:01:57;;;;;;;2.13;0.20;;;22.00;98.90;;;;;;20643543;28;20101;-40
2022/07/27 11:11:59;;;;;;;0.35;0.10;;;22.40;97.40;;;;;;20648416;28;20105;-40
2022/07/27 11:22:00;;;;;;;0.05;0.00;;;22.20;97.10;;;;;;20645622;28;20082;-40
2022/07/27 11:32:02;;;;;;;2.05;0.20;;;22.40;97.10;;;;;;20650917;28;20352;-40
2022/07/27 11:42:03;;;;;;;0.45;0.17;;;22.50;98.10;;;;;;20650117;28;20116;-40
2022/07/27 11:52:06;;;;;;;0.30;0.10;;;21.90;96.40;;;;;;20632762;28;20418;-40
2022/07/27 12:02:16;;;;;;;0.20;0.10;;;21.20;98.80;;;;;;20636063;28;20093;-40
2022/07/27 12:12:25;;;;;;;0.77;0.10;;;21.80;98.60;;;;;;20629208;28;20458;-39
2022/07/27 12:22:29;;;;;;;1.50;0.20;;;22.30;97.80;;;;;;20640857;28;21920;-39
2022/07/27 12:32:35;;;;;;;0.25;0.10;;;23.00;97.50;;;;;;20657662;28;20046;-39
2022/07/27 12:42:36;;;;;;;0.93;0.20;;;22.80;97.10;;;;;;20653821;28;20114;-39
2022/07/27 12:52:57;;;;;;;0.70;0.20;;;22.10;99.10;;;;;;20661906;28;20042;-40
2022/07/27 13:02:59;;;;;;;7.38;0.20;;;22.10;99.90;;;;;;20663798;28;20065;-38
2022/07/27 13:13:00;;;;;;;0.50;0.30;;;22.80;98.40;;;;;;20639577;28;20093;-39
2022/07/27 13:23:01;;;;;;;0.22;0.17;;;22.60;97.50;;;;;;20640319;28;20057;-39
2022/07/27 13:33:02;;;;;;;0.40;0.10;;;22.60;96.10;;;;;;20643623;28;20050;-39
2022/07/27 13:43:03;;;;;;;0.30;0.10;;;23.30;97.20;;;;;;20649858;28;20046;-37
2022/07/27 13:53:04;;;;;;;0.22;0.10;;;23.60;96.20;;;;;;20643340;28;20035;-37
2022/07/27 14:03:08;;;;;;;1.00;0.30;;;22.80;96.70;;;;;;20624447;28;20609;-39
2022/07/27 14:13:12;;;;;;;0.35;0.10;;;21.90;98.60;;;;;;20632664;28;20082;-40
2022/07/27 14:23:13;;;;;;;0.25;0.05;;;22.90;97.90;;;;;;20641120;28;20038;-40
2022/07/27 14:33:14;;;;;;;0.32;0.10;;;22.60;97.50;;;;;;20638050;28;20045;-40
2022/07/27 14:43:16;;;;;;;0.30;0.10;;;22.40;98.30;;;;;;20628578;28;20102;-40
2022/07/27 14:53:17;;;;;;;0.38;0.10;;;22.20;99.10;;;;;;20615045;28;20499;-41
2022/07/27 15:03:19;;;;;;;0.50;0.10;;;22.20;98.40;;;;;;20617824;28;20213;-41
2022/07/27 15:13:20;;;;;;;0.17;0.00;;;21.60;98.50;;;;;;20619448;28;20667;-41
2022/07/27 15:23:22;;;;;;;0.20;0.10;;;21.20;99.10;;;;;;20620339;28;20424;-40
2022/07/27 15:33:24;;;;;;;0.20;0.10;;;20.90;99.90;;;;;;20638762;28;20682;-39
2022/07/27 15:43:25;;;;;;;0.47;0.10;;;20.60;99.90;;;;;;20638414;28;20648;-40
2022/07/27 15:53:27;;;;;;;0.40;0.20;;;20.50;99.90;;;;;;20636537;28;20442;-40
2022/07/27 16:03:28;;;;;;;0.45;0.10;;;20.40;99.90;;;;;;20628582;28;20104;-39
2022/07/27 16:13:29;;;;;;;0.30;0.10;;;20.40;99.90;;;;;;20636199;28;20140;-40
2022/07/27 16:23:30;;;;;;;0.60;0.30;;;20.20;99.90;;;;;;20657672;28;20049;-39
2022/07/27 16:33:32;;;;;;;5.00;0.10;;;20.10;99.90;;;;;;20699563;28;20094;-40
2022/07/27 16:43:37;;;;;;;0.47;0.20;;;20.00;99.90;;;;;;20696964;28;20042;-41
2022/07/27 16:53:40;;;;;;;1.20;0.13;;;19.80;99.90;;;;;;20679868;28;20591;-39
2022/07/27 17:03:46;;;;;;;0.25;0.10;;;19.90;99.90;;;;;;20674225;28;20498;-40
2022/07/27 17:13:49;;;;;;;0.28;0.10;;;19.80;99.90;;;;;;20695848;28;20453;-40
2022/07/27 17:23:50;;;;;;;0.40;0.10;;;19.50;99.90;;;;;;20703369;28;20034;-40
2022/07/27 17:33:52;;;;;;;0.20;0.10;;;19.50;99.90;;;;;;20705370;28;20098;-39
2022/07/27 17:43:53;;;;;;;0.10;0.00;;;19.30;99.90;;;;;;20703197;28;20549;-39
2022/07/27 17:53:54;;;;;;;0.82;0.10;;;19.00;99.90;;;;;;20704217;28;20034;-40
2022/07/27 18:03:55;;;;;;;0.32;0.10;;;18.90;99.90;;;;;;20711472;28;20042;-40
2022/07/27 18:13:57;;;;;;;0.20;0.10;;;18.80;99.90;;;;;;20717805;28;20282;-38
2022/07/27 18:23:58;;;;;;;0.30;0.10;;;18.80;99.90;;;;;;20713172;28;20066;-40
2022/07/27 18:34:00;;;;;;;0.57;0.28;;;18.80;99.90;;;;;;20717057;28;20049;-39
2022/07/27 18:44:01;;;;;;;0.82;0.20;;;18.70;99.90;;;;;;20714684;28;20057;-40
2022/07/27 18:54:02;;;;;;;1.00;0.22;;;18.60;99.90;;;;;;20695747;28;20495;-40
2022/07/27 19:04:04;;;;;;;0.93;0.20;;;18.60;99.90;;;;;;20706212;28;20054;-40
2022/07/27 19:14:06;;;;;;;0.00;0.00;;;18.50;99.90;;;;;;20718134;28;20465;-40
2022/07/27 19:24:07;;;;;;;0.50;0.15;;;18.40;99.90;;;;;;20719638;28;20058;-44
2022/07/27 19:34:08;;;;;;;1.25;0.20;;;18.30;99.90;;;;;;20707482;28;20038;-40
2022/07/27 19:44:09;;;;;;;0.70;0.20;;;18.20;99.90;;;;;;20702979;28;20466;-40
2022/07/27 19:54:10;;;;;;;0.80;0.20;;;17.90;99.90;;;;;;20715757;28;20049;-39
2022/07/27 20:04:11;;;;;;;0.30;0.10;;;17.90;99.90;;;;;;20695284;28;20030;-40
2022/07/27 20:14:12;;;;;;;1.08;0.20;;;17.70;99.90;;;;;;20680252;28;20034;-40
2022/07/27 20:24:13;;;;;;;0.85;0.40;;;17.60;99.90;;;;;;20672035;28;20034;-40
2022/07/27 20:34:14;;;;;;;1.05;0.10;;;17.40;99.90;;;;;;20661458;28;20042;-40
2022/07/27 20:44:15;;;;;;;1.25;0.20;;;17.20;99.90;;;;;;20658315;28;20057;-40
2022/07/27 20:54:16;;;;;;;0.40;0.10;;;17.10;99.90;;;;;;20685868;28;20398;-40
2022/07/27 21:04:18;;;;;;;0.52;0.15;;;16.90;99.90;;;;;;20682506;28;20034;-40
2022/07/27 21:14:19;;;;;;;1.23;0.20;;;16.80;99.90;;;;;;20678675;28;20045;-43
2022/07/27 21:24:21;;;;;;;0.40;0.20;;;16.60;99.90;;;;;;20683902;28;20050;-40
2022/07/27 21:34:22;;;;;;;0.50;0.20;;;16.40;99.90;;;;;;20661435;28;20224;-41
2022/07/27 21:44:23;;;;;;;1.05;0.25;;;16.30;99.90;;;;;;20671898;28;20702;-40
2022/07/27 21:54:24;;;;;;;7.88;0.30;;;16.10;99.90;;;;;;20674511;28;20090;-40
2022/07/27 22:04:26;;;;;;;0.77;0.20;;;16.00;99.90;;;;;;20672950;28;20026;-40
2022/07/27 22:14:27;;;;;;;0.45;0.20;;;15.80;99.90;;;;;;20677743;28;20474;-40
2022/07/27 22:24:28;;;;;;;0.68;0.20;;;15.80;99.90;;;;;;20688182;28;20086;-40
2022/07/27 22:34:29;;;;;;;0.93;0.20;;;15.80;99.90;;;;;;20676439;28;20038;-40
2022/07/27 22:44:31;;;;;;;2.20;0.20;;;15.70;99.90;;;;;;20678788;28;20329;-40
2022/07/27 22:54:33;;;;;;;1.95;0.60;;;15.60;99.90;;;;;;20677241;28;20042;-40
2022/07/27 23:04:34;;;;;;;0.63;0.10;;;15.60;99.90;;;;;;20674139;28;20034;-40
2022/07/27 23:14:35;;;;;;;0.57;0.13;;;15.60;99.90;;;;;;20669003;28;20046;-40
2022/07/27 23:24:36;;;;;;;1.40;0.22;;;15.50;99.90;;;;;;20664325;28;20519;-40
2022/07/27 23:34:37;;;;;;;0.68;0.20;;;15.40;99.90;;;;;;20667950;28;20817;-40
2022/07/27 23:44:38;;;;;;;1.38;0.40;;;15.30;99.90;;;;;;20655205;28;20050;-40
2022/07/27 23:54:39;;;;;;;0.50;0.10;;;15.20;99.90;;;;;;20654385;28;20357;-40
